Time;durP1;ratioP1;P1;durP2;ratioP2;P2;SDS_P1;SDS_P2;PMS_P1;PMS_P2;Temp;Humidity;BMP_temperature;BMP_pressure;BME280_temperature;BME280_humidity;BME280_pressure;Samples;Min_cycle;Max_cycle;Signal;HPM_P1;HPM_P2
2022/08/15 00:00:57;;;;;;;1.55;1.55;;;25.80;99.90;;;26.36;60.79;100201.41;4826580;29;20126;-63
2022/08/15 00:03:34;;;;;;;1.50;1.50;;;26.00;99.90;;;26.64;59.40;100240.72;4826119;29;20072;-63
2022/08/15 00:06:27;;;;;;;1.50;1.50;;;26.10;99.90;;;26.68;59.51;100234.06;4826225;29;20408;-63
2022/08/15 00:09:17;;;;;;;;;;;26.20;99.90;;;26.63;59.51;100225.44;4826466;29;20051;-63
2022/08/15 00:11:53;;;;;;;1.45;1.45;;;26.30;99.90;;;26.71;60.10;100223.00;4826126;29;19928;-63
2022/08/15 00:14:29;;;;;;;1.65;1.65;;;26.30;99.90;;;26.73;61.14;100215.59;4825398;29;20042;-63
2022/08/15 00:17:05;;;;;;;1.30;1.30;;;26.20;99.90;;;26.64;61.00;100195.44;4826024;29;20125;-63
2022/08/15 00:19:44;;;;;;;1.23;1.23;;;26.30;99.90;;;26.62;60.77;100201.97;4826048;29;20417;-63
2022/08/15 00:22:15;;;;;;;1.38;1.38;;;26.30;99.90;;;26.71;60.35;100223.84;4825951;29;20508;-63
2022/08/15 00:24:50;;;;;;;1.48;1.48;;;26.30;99.90;;;26.83;59.67;100227.41;4825823;29;20069;-64
2022/08/15 00:27:23;;;;;;;1.50;1.50;;;26.30;99.90;;;26.78;59.85;100218.78;4824865;29;20061;-64
2022/08/15 00:29:54;;;;;;;1.20;1.20;;;26.40;99.90;;;26.79;60.10;100217.78;4825805;29;20050;-63
2022/08/15 00:32:24;;;;;;;;;;;26.30;99.90;;;26.79;60.02;100221.38;4826106;29;20050;-63
2022/08/15 00:38:11;;;;;;;1.40;1.40;;;26.20;99.90;;;26.67;60.67;100221.47;4825631;29;20497;-63
2022/08/15 00:43:53;;;;;;;1.42;1.42;;;26.10;99.90;;;26.61;62.59;100213.84;4824641;29;20054;-63
2022/08/15 00:46:25;;;;;;;1.70;1.70;;;26.10;99.90;;;26.53;64.28;100221.72;4825786;29;20054;-63
2022/08/15 00:48:55;;;;;;;1.52;1.52;;;26.00;99.90;;;26.41;64.50;100214.56;4825844;29;20111;-64
2022/08/15 00:51:30;;;;;;;;;;;25.90;99.90;;;26.14;64.63;100198.66;4826047;29;20050;-63
2022/08/15 00:54:06;;;;;;;1.50;1.50;;;25.80;99.90;;;26.15;65.19;100208.50;4824250;29;19931;-63
2022/08/15 00:56:48;;;;;;;1.40;1.40;;;25.70;99.90;;;26.13;65.46;100212.34;4825854;29;20166;-63
2022/08/15 00:59:26;;;;;;;1.20;1.20;;;25.60;99.90;;;26.17;65.48;100208.41;4824387;29;20080;-64
2022/08/15 01:02:02;;;;;;;1.50;1.50;;;25.60;99.90;;;26.01;65.38;100211.41;4825368;29;20054;-63
2022/08/15 01:04:51;;;;;;;1.50;1.50;;;25.50;99.90;;;26.04;65.81;100210.28;4825254;29;20046;-63
2022/08/15 01:07:27;;;;;;;1.20;1.20;;;25.50;99.90;;;26.04;66.23;100210.28;4825515;29;20050;-63
2022/08/15 01:09:56;;;;;;;1.35;1.35;;;25.50;99.90;;;26.04;67.31;100207.59;4825484;29;20050;-62
2022/08/15 01:12:27;;;;;;;1.30;1.30;;;25.50;99.90;;;25.94;67.98;100207.44;4825370;29;20050;-63
2022/08/15 01:15:01;;;;;;;1.48;1.48;;;25.40;99.90;;;25.97;68.31;100201.81;4824266;29;20059;-62
2022/08/15 01:17:32;;;;;;;1.52;1.52;;;25.50;99.90;;;26.05;66.27;100207.50;4825421;29;20054;-63
2022/08/15 01:20:05;;;;;;;1.40;1.40;;;25.50;99.90;;;26.02;65.78;100212.25;4824090;29;20050;-62
2022/08/15 01:22:56;;;;;;;4.05;3.85;;;25.60;99.90;;;25.64;67.03;100208.00;4823985;29;20055;-62
2022/08/15 01:25:33;;;;;;;1.40;1.40;;;25.30;99.90;;;25.61;66.97;100201.97;4823836;29;20085;-62
2022/08/15 01:28:32;;;;;;;1.52;1.52;;;25.10;99.90;;;25.62;67.04;100203.69;4823939;29;20050;-62
2022/08/15 01:31:06;;;;;;;1.60;1.60;;;25.10;99.90;;;25.67;67.90;100194.19;4823934;29;20054;-62
2022/08/15 01:33:45;;;;;;;1.48;1.48;;;25.20;99.90;;;25.68;69.00;100193.25;4823891;29;20046;-62
2022/08/15 01:36:19;;;;;;;1.45;1.45;;;25.20;99.90;;;25.64;69.35;100199.00;4825024;29;20121;-62
2022/08/15 01:39:10;;;;;;;1.40;1.40;;;25.10;99.90;;;25.64;68.62;100183.63;4823861;29;20137;-63
2022/08/15 01:41:52;;;;;;;1.60;1.60;;;25.10;99.90;;;25.55;69.49;100162.63;4823879;29;20054;-63
2022/08/15 01:44:31;;;;;;;1.50;1.50;;;25.20;99.90;;;25.47;69.12;100158.81;4824964;29;20397;-63
2022/08/15 01:47:15;;;;;;;1.40;1.40;;;25.10;99.90;;;25.69;69.74;100173.28;4823850;29;20060;-63
2022/08/15 01:49:55;;;;;;;2.00;1.90;;;25.20;99.90;;;25.77;67.54;100183.50;4823688;29;20501;-63
2022/08/15 01:52:40;;;;;;;1.77;1.77;;;25.30;99.90;;;25.87;65.74;100179.97;4823670;29;20054;-63
2022/08/15 01:55:42;;;;;;;1.48;1.48;;;25.40;99.90;;;25.85;66.03;100179.22;4823461;29;20046;-62
2022/08/15 01:58:25;;;;;;;1.42;1.42;;;25.40;99.90;;;25.84;67.20;100173.94;4823635;29;20050;-62
2022/08/15 02:01:02;;;;;;;1.50;1.50;;;25.40;99.90;;;26.03;67.78;100181.47;4823605;29;20137;-62
2022/08/15 02:03:38;;;;;;;1.42;1.42;;;25.50;99.90;;;26.03;67.64;100178.75;4824445;29;20256;-62
2022/08/15 02:06:26;;;;;;;1.40;1.40;;;25.50;99.90;;;26.03;67.42;100182.34;4823526;29;20145;-62
2022/08/15 02:09:07;;;;;;;1.50;1.50;;;25.50;99.90;;;25.95;64.16;100190.22;4823235;29;20050;-62
2022/08/15 02:11:57;;;;;;;1.80;1.80;;;25.50;99.90;;;25.94;63.04;100213.75;4823517;29;20054;-62
2022/08/15 02:14:41;;;;;;;1.63;1.63;;;25.50;99.90;;;25.92;62.07;100187.72;4824905;29;20431;-62
2022/08/15 02:17:16;;;;;;;1.63;1.63;;;25.50;99.90;;;25.89;62.21;100193.41;4823373;29;20062;-63
2022/08/15 02:19:48;;;;;;;1.92;1.83;;;25.40;99.90;;;25.80;62.44;100203.09;4823200;29;20107;-62
2022/08/15 02:22:24;;;;;;;3.75;3.50;;;25.40;99.90;;;25.54;63.75;100211.53;4823525;29;20463;-63
2022/08/15 02:24:59;;;;;;;2.65;2.50;;;25.20;99.90;;;24.94;66.79;100220.53;4823236;29;20046;-62
2022/08/15 02:27:32;;;;;;;2.03;1.92;;;24.70;99.90;;;24.58;68.13;100214.22;4823303;29;20107;-63
2022/08/15 02:30:11;;;;;;;1.65;1.65;;;24.30;99.90;;;24.46;69.08;100198.88;4838361;29;20111;-62
2022/08/15 02:32:46;;;;;;;2.00;1.90;;;24.10;99.90;;;24.57;67.82;100197.13;4823170;29;20486;-62
2022/08/15 02:35:17;;;;;;;2.38;2.28;;;24.10;99.90;;;24.72;66.38;100197.88;4822868;29;20524;-63
2022/08/15 02:37:47;;;;;;;2.05;1.95;;;24.30;99.90;;;24.89;66.86;100189.41;4823943;29;20082;-62
2022/08/15 02:40:31;;;;;;;2.22;2.13;;;24.40;99.90;;;25.00;66.42;100174.09;4826915;29;20474;-62
2022/08/15 02:43:20;;;;;;;2.10;2.00;;;24.60;99.90;;;25.13;64.64;100155.06;4826329;29;20062;-62
2022/08/15 02:45:53;;;;;;;2.00;1.90;;;24.60;99.90;;;25.23;64.48;100164.22;4827827;29;20106;-63
2022/08/15 02:48:48;;;;;;;1.60;1.60;;;24.80;99.90;;;25.26;64.32;100146.88;4826521;29;20054;-63
2022/08/15 02:51:32;;;;;;;1.80;1.80;;;24.80;99.90;;;25.34;63.59;100145.31;4826459;29;20061;-63
2022/08/15 02:54:27;;;;;;;2.00;1.90;;;24.90;99.90;;;25.33;63.15;100153.53;4826346;29;20054;-63
2022/08/15 02:57:09;;;;;;;1.90;1.80;;;25.00;99.90;;;25.44;62.76;100143.66;4826355;29;20568;-63
2022/08/15 02:59:45;;;;;;;2.00;1.92;;;25.00;99.90;;;25.58;62.60;100148.88;4826276;29;20454;-63
2022/08/15 03:02:26;;;;;;;1.70;1.70;;;25.20;99.90;;;25.70;61.87;100136.22;4826298;29;20054;-63
2022/08/15 03:05:00;;;;;;;2.42;2.33;;;25.20;99.90;;;25.78;61.42;100133.78;4826180;29;20062;-63
2022/08/15 03:07:31;;;;;;;1.75;1.75;;;25.30;99.90;;;25.87;61.11;100143.88;4826131;29;20099;-62
2022/08/15 03:10:05;;;;;;;1.55;1.55;;;25.40;99.90;;;25.73;60.93;100126.00;4826052;29;20077;-63
2022/08/15 03:12:53;;;;;;;1.70;1.70;;;25.40;99.90;;;25.84;61.09;100154.97;4826030;29;20081;-63
2022/08/15 03:15:32;;;;;;;1.80;1.75;;;25.40;99.90;;;25.82;61.15;100155.06;4825993;29;20054;-62
2022/08/15 03:18:05;;;;;;;1.58;1.58;;;25.40;99.90;;;25.86;60.90;100153.84;4825915;29;20050;-63
2022/08/15 03:20:36;;;;;;;1.40;1.40;;;25.40;99.90;;;25.96;61.00;100155.84;4826904;29;20439;-63
2022/08/15 03:23:08;;;;;;;1.70;1.70;;;25.50;99.90;;;25.87;61.89;100150.16;4825879;29;20111;-63
2022/08/15 03:25:48;;;;;;;1.50;1.50;;;25.40;99.90;;;25.82;62.41;100155.06;4825863;29;20078;-63
2022/08/15 03:28:28;;;;;;;1.80;1.80;;;25.40;99.90;;;25.81;62.67;100149.78;4825510;29;20140;-63
2022/08/15 03:31:08;;;;;;;1.98;1.90;;;25.40;99.90;;;25.79;62.69;100141.78;4825823;29;20150;-63
2022/08/15 03:33:43;;;;;;;1.77;1.77;;;25.30;99.90;;;25.71;62.87;100127.09;4825601;29;20493;-63
2022/08/15 03:36:26;;;;;;;1.60;1.60;;;25.40;99.90;;;25.85;61.84;100133.16;4825466;29;20535;-63
2022/08/15 03:38:55;;;;;;;1.58;1.58;;;25.40;99.90;;;25.89;61.57;100131.94;4826904;29;20055;-63
2022/08/15 03:41:28;;;;;;;1.65;1.65;;;25.40;99.90;;;25.89;61.90;100134.66;4825537;29;20485;-63
2022/08/15 03:43:57;;;;;;;1.60;1.60;;;25.40;99.90;;;25.90;61.90;100140.91;4825515;29;20409;-62
2022/08/15 03:46:28;;;;;;;1.48;1.48;;;25.40;99.90;;;25.91;61.61;100146.22;4825747;29;20408;-63
2022/08/15 03:49:00;;;;;;;1.90;1.80;;;25.40;99.90;;;25.83;61.88;100158.66;4825343;29;20054;-63
2022/08/15 03:51:41;;;;;;;1.50;1.50;;;25.40;99.90;;;25.81;61.80;100185.88;4825331;29;20520;-62
2022/08/15 03:54:13;;;;;;;3.35;3.15;;;25.40;99.90;;;25.75;62.25;100183.63;4825278;29;20060;-62
2022/08/15 03:56:54;;;;;;;1.73;1.73;;;25.30;99.90;;;25.71;62.57;100165.00;4825374;29;20074;-62
2022/08/15 03:59:22;;;;;;;1.83;1.83;;;25.20;99.90;;;25.74;62.68;100168.38;4825261;29;20519;-62
2022/08/15 04:01:54;;;;;;;1.67;1.67;;;25.30;99.90;;;25.78;62.60;100171.72;4825252;29;20095;-62
2022/08/15 04:04:31;;;;;;;1.67;1.67;;;25.30;99.90;;;25.84;62.37;100171.22;4825230;29;20062;-62
2022/08/15 04:07:03;;;;;;;1.58;1.58;;;25.40;99.90;;;25.82;62.54;100171.31;4825166;29;20050;-62
2022/08/15 04:09:40;;;;;;;1.70;1.70;;;25.40;99.90;;;25.83;62.27;100167.66;4825397;29;20138;-61
2022/08/15 04:12:14;;;;;;;1.83;1.80;;;25.40;99.90;;;25.79;61.65;100174.28;4826228;29;20050;-60
2022/08/15 04:14:54;;;;;;;1.77;1.77;;;25.40;99.90;;;25.73;61.86;100174.75;4825002;29;20061;-61
2022/08/15 04:17:26;;;;;;;2.03;1.95;;;25.30;99.90;;;25.69;61.74;100186.81;4826233;29;20125;-61
2022/08/15 04:20:18;;;;;;;1.65;1.65;;;25.30;99.90;;;25.66;60.95;100183.50;4824970;29;20113;-61
2022/08/15 04:23:01;;;;;;;1.70;1.70;;;25.20;99.90;;;25.59;60.26;100183.09;4824989;29;20092;-60
2022/08/15 04:25:34;;;;;;;1.70;1.70;;;25.20;99.90;;;25.63;59.82;100184.59;4824923;29;20141;-60
2022/08/15 04:28:25;;;;;;;1.70;1.70;;;25.20;99.90;;;25.71;59.71;100181.28;4824619;29;20088;-61
2022/08/15 04:31:20;;;;;;;1.63;1.63;;;25.20;99.90;;;25.68;59.01;100182.41;4824863;29;20053;-60
2022/08/15 04:33:50;;;;;;;1.73;1.73;;;25.20;99.90;;;25.60;59.04;100209.22;4824417;29;20054;-60
2022/08/15 04:36:42;;;;;;;1.50;1.50;;;25.10;99.90;;;25.49;58.83;100208.31;4824434;29;20111;-60
2022/08/15 04:39:14;;;;;;;1.60;1.60;;;25.10;99.90;;;25.41;58.65;100206.19;4824715;29;20058;-60
2022/08/15 04:41:55;;;;;;;2.35;2.15;;;25.00;99.90;;;25.33;58.36;100218.53;4824632;29;20086;-60
2022/08/15 04:44:26;;;;;;;1.98;1.88;;;24.90;99.90;;;25.28;57.91;100205.34;4824510;29;20081;-60
2022/08/15 04:46:57;;;;;;;1.70;1.70;;;24.80;99.90;;;25.27;57.55;100194.63;4824486;29;20107;-61
2022/08/15 04:49:27;;;;;;;1.58;1.58;;;24.80;99.90;;;25.31;56.82;100186.16;4824467;29;20046;-61
2022/08/15 04:52:08;;;;;;;1.70;1.70;;;24.80;99.90;;;25.39;56.54;100193.69;4825718;29;20127;-61
2022/08/15 04:54:38;;;;;;;2.10;2.00;;;24.80;99.90;;;25.36;56.71;100191.25;4825587;29;20050;-60
2022/08/15 04:57:31;;;;;;;1.67;1.67;;;24.90;99.90;;;25.46;56.46;100187.72;4824661;29;20386;-61
2022/08/15 05:00:05;;;;;;;1.60;1.60;;;24.90;99.90;;;25.26;57.25;100161.25;4824080;29;20046;-61
2022/08/15 05:03:04;;;;;;;1.77;1.77;;;24.80;99.90;;;25.09;57.84;100140.03;4815525;29;20413;-61
2022/08/15 05:05:40;;;;;;;1.77;1.77;;;24.70;99.90;;;25.27;57.57;100178.38;4824049;29;20055;-61
2022/08/15 05:08:13;;;;;;;1.70;1.70;;;24.80;99.90;;;25.22;57.16;100188.72;4824274;29;20516;-61
2022/08/15 05:10:51;;;;;;;2.05;1.95;;;24.80;99.90;;;24.59;57.15;100070.75;4823934;29;20046;-60
2022/08/15 05:13:23;;;;;;;1.90;1.88;;;24.80;99.90;;;25.29;56.99;100169.16;4825680;29;20107;-60
2022/08/15 05:15:57;;;;;;;1.77;1.77;;;24.80;99.90;;;25.26;57.56;100179.38;4825330;29;20382;-61
2022/08/15 05:18:41;;;;;;;2.17;2.08;;;24.80;99.90;;;25.23;57.36;100161.50;4825107;29;20474;-61
2022/08/15 05:21:15;;;;;;;1.77;1.77;;;24.80;99.90;;;25.27;57.64;100183.78;4823729;29;20054;-61
2022/08/15 05:23:45;;;;;;;1.70;1.70;;;24.80;99.90;;;25.25;57.87;100180.34;4823997;29;20103;-61
2022/08/15 05:26:27;;;;;;;1.83;1.77;;;24.80;99.90;;;25.23;58.04;100176.88;4823677;29;20061;-61
2022/08/15 05:29:17;;;;;;;1.60;1.60;;;24.80;99.90;;;25.23;58.65;100179.59;4823936;29;20050;-61
2022/08/15 05:31:45;;;;;;;1.70;1.70;;;24.80;99.90;;;25.22;59.14;100186.88;4823878;29;20103;-61
2022/08/15 05:34:20;;;;;;;1.58;1.58;;;24.80;99.90;;;25.19;58.80;100192.50;4823560;29;20145;-61
2022/08/15 05:37:06;;;;;;;1.60;1.60;;;24.80;99.90;;;25.17;59.30;100210.72;4823824;29;20516;-62
2022/08/15 05:39:40;;;;;;;1.70;1.70;;;24.80;99.90;;;25.13;60.64;100217.31;4823860;29;20058;-60
2022/08/15 05:42:28;;;;;;;1.60;1.60;;;24.70;99.90;;;24.98;61.06;100200.41;4825061;29;20201;-60
2022/08/15 05:45:09;;;;;;;1.73;1.73;;;24.60;99.90;;;24.96;61.21;100205.06;4823790;29;20061;-61
2022/08/15 05:47:47;;;;;;;1.65;1.65;;;24.60;99.90;;;24.94;61.66;100211.56;4823535;29;20433;-61
2022/08/15 05:50:30;;;;;;;1.63;1.63;;;24.50;99.90;;;24.94;61.45;100211.56;4823730;29;20099;-61
2022/08/15 05:53:13;;;;;;;1.55;1.55;;;24.50;99.90;;;24.97;61.12;100211.34;4823595;29;20146;-61
2022/08/15 05:55:50;;;;;;;2.08;1.98;;;24.50;99.90;;;25.03;60.65;100214.44;4823531;29;20046;-61
2022/08/15 05:58:38;;;;;;;2.03;1.92;;;24.60;99.90;;;24.98;60.86;100197.69;4824666;29;20053;-61
2022/08/15 06:01:23;;;;;;;1.70;1.70;;;24.60;99.90;;;25.18;60.61;100209.75;4823512;29;20508;-61
2022/08/15 06:04:05;;;;;;;2.00;1.90;;;24.70;99.90;;;25.23;60.77;100209.38;4823441;29;20050;-61
2022/08/15 06:06:38;;;;;;;1.77;1.77;;;24.80;99.90;;;25.21;61.08;100203.22;4823508;29;20054;-61
2022/08/15 06:09:36;;;;;;;1.70;1.70;;;24.80;99.90;;;25.31;61.42;100188.00;4823417;29;20062;-61
2022/08/15 06:12:27;;;;;;;1.95;1.85;;;24.80;99.90;;;25.10;62.51;100178.78;4822301;29;20054;-61
2022/08/15 06:15:10;;;;;;;2.00;1.90;;;24.60;99.90;;;24.87;62.47;100167.00;4823279;29;20167;-61
2022/08/15 06:17:54;;;;;;;2.75;2.65;;;24.40;99.90;;;24.64;63.36;100165.94;4823700;29;20412;-60
2022/08/15 06:20:36;;;;;;;1.92;1.88;;;24.20;99.90;;;24.89;62.12;100176.69;4823270;29;20126;-61
2022/08/15 06:23:35;;;;;;;1.80;1.80;;;24.30;99.90;;;25.01;61.78;100186.63;4823187;29;20070;-60
2022/08/15 06:26:18;;;;;;;;;;;24.50;99.90;;;24.97;62.21;100185.13;4823248;29;20050;-60
2022/08/15 06:29:10;;;;;;;1.88;1.88;;;24.60;99.90;;;24.99;62.73;100194.00;4838263;29;20078;-60
2022/08/15 06:31:46;;;;;;;1.98;1.88;;;24.60;99.90;;;25.04;62.67;100199.94;4823133;29;20050;-60
2022/08/15 06:34:32;;;;;;;1.67;1.67;;;24.60;99.90;;;25.08;62.54;100192.44;4823098;29;20046;-60
2022/08/15 06:37:28;;;;;;;1.80;1.80;;;24.60;99.90;;;25.09;62.81;100205.00;4822640;29;20455;-61
2022/08/15 06:40:15;;;;;;;2.00;1.90;;;24.60;99.90;;;24.97;63.06;100184.28;4838190;29;20050;-60
2022/08/15 06:42:59;;;;;;;1.60;1.60;;;24.70;99.90;;;25.11;63.57;100196.75;4822945;29;20062;-61
2022/08/15 06:45:51;;;;;;;1.92;1.83;;;24.70;99.90;;;25.12;64.02;100195.78;4824183;29;20068;-61
2022/08/15 06:48:30;;;;;;;1.80;1.80;;;24.60;99.90;;;25.16;63.32;100184.63;4822728;29;20050;-60
2022/08/15 06:51:20;;;;;;;2.03;1.92;;;24.70;99.90;;;25.14;63.25;100224.47;4822620;29;20046;-61
2022/08/15 06:53:55;;;;;;;2.10;2.00;;;24.70;99.90;;;25.01;63.10;100196.56;4822915;29;20050;-61
2022/08/15 06:56:38;;;;;;;2.22;2.13;;;24.60;99.90;;;25.00;63.05;100202.97;4822833;29;20500;-63
2022/08/15 06:59:17;;;;;;;1.70;1.70;;;24.60;99.90;;;24.94;63.19;100203.44;4822230;29;20050;-59
2022/08/15 07:02:35;;;;;;;2.17;2.10;;;24.40;99.90;;;24.95;62.92;100216.00;4822825;29;20061;-60
2022/08/15 07:05:18;;;;;;;2.00;1.90;;;24.50;99.90;;;24.92;63.37;100213.50;4822718;29;20507;-62
2022/08/15 07:08:04;;;;;;;1.90;1.83;;;24.40;99.90;;;24.91;63.49;100222.63;4823076;29;20059;-62
2022/08/15 07:10:46;;;;;;;2.00;1.90;;;24.40;99.90;;;24.90;63.54;100215.47;4822568;29;20057;-63
2022/08/15 07:13:27;;;;;;;1.77;1.77;;;24.40;99.90;;;24.93;63.50;100205.28;4822721;29;20463;-63
2022/08/15 07:15:59;;;;;;;1.92;1.88;;;24.50;99.90;;;24.96;63.88;100204.19;4822625;29;20046;-59
2022/08/15 07:18:40;;;;;;;1.95;1.90;;;24.50;99.90;;;24.96;64.14;100201.47;4822729;29;20054;-60
2022/08/15 07:21:25;;;;;;;2.10;2.00;;;24.60;99.90;;;24.97;64.16;100212.19;4822632;29;20058;-60
2022/08/15 07:24:28;;;;;;;1.83;1.73;;;24.60;99.90;;;24.94;64.93;100227.78;4824132;29;20054;-61
2022/08/15 07:27:15;;;;;;;1.52;1.52;;;24.50;99.90;;;24.48;66.84;100218.56;4826136;29;20107;-61
2022/08/15 07:29:52;;;;;;;1.70;1.70;;;24.30;99.90;;;24.32;68.46;100224.19;4825808;29;20553;-61
2022/08/15 07:32:32;;;;;;;1.65;1.65;;;24.00;99.90;;;24.30;68.57;100214.47;4825759;29;20054;-61
2022/08/15 07:35:23;;;;;;;1.90;1.80;;;23.90;99.90;;;24.25;68.99;100209.41;4825887;29;20062;-63
2022/08/15 07:37:58;;;;;;;1.63;1.63;;;23.90;99.90;;;24.29;68.28;100228.97;4825436;29;20061;-61
2022/08/15 07:40:34;;;;;;;2.17;2.08;;;23.90;99.90;;;24.26;68.92;100208.41;4825626;29;20062;-60
2022/08/15 07:43:27;;;;;;;1.88;1.85;;;23.90;99.90;;;24.36;70.30;100168.94;4825670;29;20050;-62
2022/08/15 07:46:12;;;;;;;1.85;1.80;;;23.90;99.90;;;24.23;71.34;100138.38;4825465;29;20126;-60
2022/08/15 07:49:07;;;;;;;2.33;2.22;;;23.80;99.90;;;24.05;72.01;100189.19;4826721;29;20053;-59
2022/08/15 07:51:48;;;;;;;1.90;1.80;;;23.60;99.90;;;24.01;72.27;100182.22;4825454;29;20118;-60
2022/08/15 07:54:32;;;;;;;2.05;1.95;;;23.60;99.90;;;24.01;72.10;100187.63;4825415;29;20050;-59
2022/08/15 07:57:27;;;;;;;2.15;2.05;;;23.60;99.90;;;24.10;71.91;100192.41;4825290;29;20416;-59
2022/08/15 08:00:21;;;;;;;2.13;2.03;;;23.70;99.90;;;24.20;72.49;100197.19;4825105;29;20413;-59
2022/08/15 08:03:16;;;;;;;8.52;2.50;;;23.80;99.90;;;24.35;72.28;100190.69;4825206;29;20050;-60
2022/08/15 08:05:56;;;;;;;2.28;2.17;;;23.90;99.90;;;24.44;72.96;100184.59;4824877;29;20054;-59
2022/08/15 08:08:38;;;;;;;1.92;1.85;;;24.00;99.90;;;24.64;72.77;100182.16;4824767;29;20069;-59
2022/08/15 08:11:23;;;;;;;1.73;1.73;;;24.20;99.90;;;24.76;72.26;100183.13;4824955;29;20055;-59
2022/08/15 08:14:04;;;;;;;1.60;1.60;;;24.30;99.90;;;24.85;71.24;100186.03;4825029;29;20149;-59
2022/08/15 08:16:56;;;;;;;2.05;1.95;;;24.40;99.90;;;24.87;70.89;100181.38;4824599;29;20043;-59
2022/08/15 08:19:38;;;;;;;2.55;2.33;;;24.50;99.90;;;24.97;70.70;100187.00;4825125;29;20055;-61
2022/08/15 08:22:20;;;;;;;1.95;1.85;;;24.50;99.90;;;25.05;70.56;100192.66;4826092;29;20054;-58
2022/08/15 08:25:02;;;;;;;2.15;2.05;;;24.60;99.90;;;25.10;70.57;100195.91;4824968;29;20088;-58
2022/08/15 08:27:46;;;;;;;1.75;1.73;;;24.60;99.90;;;25.15;70.46;100200.97;4824879;29;20061;-58
2022/08/15 08:30:27;;;;;;;3.17;2.95;;;24.70;99.90;;;25.13;70.57;100209.22;4824709;29;20057;-58
2022/08/15 08:33:21;;;;;;;1.90;1.80;;;24.70;99.90;;;25.12;70.74;100215.63;4824491;29;20412;-58
2022/08/15 08:35:59;;;;;;;1.63;1.63;;;24.70;99.90;;;25.13;71.12;100227.28;4825032;29;20512;-59
2022/08/15 08:38:57;;;;;;;1.67;1.67;;;24.70;99.90;;;25.09;71.44;100226.66;4825408;29;20459;-59
2022/08/15 08:41:44;;;;;;;2.00;1.90;;;24.70;99.90;;;25.07;71.87;100236.72;4825599;29;20409;-58
2022/08/15 08:44:23;;;;;;;;;;;24.70;99.90;;;25.06;71.66;100232.31;4825785;29;20049;-59
2022/08/15 08:47:26;;;;;;;2.03;1.92;;;24.60;99.90;;;25.07;71.51;100235.88;4825339;29;19925;-59
2022/08/15 08:50:15;;;;;;;1.60;1.60;;;24.60;99.90;;;25.12;71.68;100248.09;4825347;29;20561;-59
2022/08/15 08:53:17;;;;;;;2.10;2.00;;;24.70;99.90;;;25.10;71.45;100232.94;4825428;29;20054;-60
2022/08/15 08:56:06;;;;;;;1.70;1.70;;;24.70;99.90;;;25.20;71.06;100242.97;4825124;29;20050;-62
2022/08/15 08:59:07;;;;;;;1.95;1.88;;;24.80;99.90;;;25.27;71.31;100251.50;4824247;29;20070;-60
2022/08/15 09:01:39;;;;;;;1.75;1.75;;;24.80;99.90;;;25.31;71.53;100247.56;4825057;29;20118;-62
2022/08/15 09:04:13;;;;;;;1.60;1.60;;;24.90;99.90;;;25.42;71.33;100253.06;4825253;29;20076;-63
2022/08/15 09:06:49;;;;;;;1.65;1.65;;;25.00;99.90;;;25.50;71.14;100253.38;4825460;29;20287;-63
2022/08/15 09:09:28;;;;;;;2.10;2.00;;;25.00;99.90;;;25.63;71.07;100251.44;4825320;29;20077;-61
2022/08/15 09:12:03;;;;;;;1.60;1.60;;;25.20;99.90;;;25.69;71.08;100251.84;4825130;29;20050;-61
2022/08/15 09:14:41;;;;;;;1.65;1.65;;;25.30;99.90;;;25.82;70.86;100255.34;4825271;29;20046;-62
2022/08/15 09:17:34;;;;;;;1.60;1.60;;;25.30;99.90;;;25.46;71.07;100152.53;4824996;29;20057;-62
2022/08/15 09:20:10;;;;;;;1.60;1.60;;;25.50;99.90;;;26.08;70.08;100239.81;4824015;29;20466;-62
2022/08/15 09:22:48;;;;;;;1.70;1.70;;;25.60;99.90;;;26.18;69.80;100246.25;4824958;29;20074;-62
2022/08/15 09:25:24;;;;;;;1.58;1.58;;;25.70;99.90;;;26.33;69.93;100250.44;4823822;29;20485;-62
2022/08/15 09:28:09;;;;;;;1.85;1.75;;;25.80;99.90;;;26.37;69.07;100249.22;4824881;29;20061;-62
2022/08/15 09:31:05;;;;;;;1.67;1.67;;;25.90;99.90;;;26.41;67.95;100247.13;4825142;29;20413;-63
2022/08/15 09:34:07;;;;;;;1.52;1.52;;;26.00;99.90;;;26.55;67.32;100246.88;4825214;29;20054;-62
2022/08/15 09:37:28;;;;;;;2.10;2.00;;;26.00;99.90;;;26.57;66.91;100253.94;4824650;29;20062;-62
2022/08/15 09:40:22;;;;;;;1.60;1.60;;;26.10;99.90;;;26.59;65.94;100261.94;4824762;29;20167;-63
2022/08/15 09:43:32;;;;;;;1.40;1.40;;;26.10;99.90;;;26.60;65.91;100260.94;4823536;29;20457;-62
2022/08/15 09:46:49;;;;;;;1.75;1.75;;;26.20;99.90;;;26.59;66.40;100262.81;4824721;29;20390;-62
2022/08/15 09:49:43;;;;;;;1.48;1.48;;;26.10;99.90;;;26.69;66.24;100263.78;4824608;29;20058;-63
2022/08/15 09:52:26;;;;;;;2.47;2.33;;;26.20;99.90;;;26.75;67.23;100274.16;4823307;29;20130;-63
2022/08/15 09:55:19;;;;;;;1.73;1.70;;;26.30;99.90;;;26.67;66.41;100246.75;4824522;29;20126;-62
2022/08/15 09:57:52;;;;;;;2.33;2.20;;;26.30;99.90;;;26.93;66.94;100260.97;4823259;29;20119;-64
2022/08/15 10:00:40;;;;;;;1.73;1.73;;;26.40;99.90;;;27.09;67.28;100272.31;4824709;29;20047;-63
2022/08/15 10:03:26;;;;;;;2.10;2.00;;;26.60;99.90;;;27.06;65.44;100264.38;4824460;29;20104;-63
2022/08/15 10:06:08;;;;;;;1.58;1.58;;;26.60;99.90;;;27.00;64.61;100267.63;4824610;29;20111;-62
2022/08/15 10:09:22;;;;;;;2.10;1.88;;;26.60;99.90;;;26.95;64.59;100272.56;4823594;29;20134;-65
2022/08/15 10:12:17;;;;;;;2.15;2.05;;;26.50;99.90;;;26.90;64.88;100271.22;4823376;29;20070;-62
2022/08/15 10:14:56;;;;;;;;;;;26.40;99.90;;;26.78;64.62;100268.50;4823086;29;20405;-62
2022/08/15 10:17:43;;;;;;;1.55;1.55;;;26.40;99.90;;;26.87;65.03;100275.03;4824567;29;19924;-61
2022/08/15 10:20:59;;;;;;;1.67;1.67;;;26.40;99.90;;;26.96;64.85;100273.44;4824501;29;20055;-60
2022/08/15 10:23:42;;;;;;;1.92;1.83;;;26.50;99.90;;;27.12;64.69;100272.03;4823177;29;20054;-63
2022/08/15 10:26:29;;;;;;;2.00;1.90;;;26.60;99.90;;;27.16;63.47;100273.50;4824136;29;20051;-63
2022/08/15 10:29:13;;;;;;;1.67;1.67;;;26.70;99.90;;;27.31;64.73;100269.53;4824130;29;20141;-64
2022/08/15 10:31:52;;;;;;;2.03;1.92;;;26.80;99.90;;;27.19;63.71;100224.38;4824095;29;20093;-62
2022/08/15 10:34:56;;;;;;;2.05;1.95;;;27.10;99.90;;;27.61;61.50;100279.72;4824049;29;20054;-63
2022/08/15 10:37:32;;;;;;;2.85;2.70;;;27.20;99.90;;;27.76;62.23;100277.59;4824205;29;20059;-63
2022/08/15 10:40:25;;;;;;;1.65;1.63;;;27.30;99.90;;;27.96;61.97;100284.91;4824331;29;20054;-63
2022/08/15 10:43:28;;;;;;;1.35;1.35;;;27.50;99.90;;;28.02;62.00;100278.97;4823993;29;20046;-64
2022/08/15 10:46:28;;;;;;;2.03;1.85;;;27.70;99.90;;;28.05;60.86;100289.59;4824242;29;20066;-63
2022/08/15 10:49:14;;;;;;;1.40;1.40;;;27.70;99.90;;;28.12;60.97;100285.34;4824303;29;20059;-62
2022/08/15 10:52:19;;;;;;;2.38;2.28;;;27.70;99.90;;;28.24;59.97;100285.13;4823999;29;20088;-63
2022/08/15 10:55:17;;;;;;;1.30;1.30;;;27.80;99.90;;;28.38;59.86;100278.47;4823803;29;20046;-63
2022/08/15 10:58:15;;;;;;;1.58;1.58;;;27.90;99.90;;;28.39;59.04;100261.16;4822609;29;20054;-62
2022/08/15 11:00:53;;;;;;;2.20;2.10;;;28.10;99.90;;;28.48;57.95;100280.28;4827818;29;20046;-62
2022/08/15 11:03:29;;;;;;;1.90;1.80;;;28.10;99.90;;;28.33;57.88;100278.03;4827458;29;20063;-62
2022/08/15 11:06:21;;;;;;;4.53;2.83;;;27.90;99.90;;;28.38;57.89;100276.63;4827067;29;20046;-66
2022/08/15 11:08:58;;;;;;;1.50;1.50;;;28.00;99.90;;;28.38;58.08;100267.59;4827405;29;20053;-62
2022/08/15 11:11:34;;;;;;;1.58;1.58;;;27.90;99.90;;;27.83;58.29;100172.75;4826136;29;20567;-62
2022/08/15 11:14:11;;;;;;;1.40;1.40;;;27.90;99.90;;;28.33;58.42;100272.59;4827088;29;20091;-62
2022/08/15 11:17:00;;;;;;;1.40;1.40;;;28.00;99.90;;;28.33;59.22;100273.47;4826807;29;20046;-62
2022/08/15 11:19:38;;;;;;;1.30;1.30;;;28.00;99.90;;;28.21;58.92;100254.59;4827489;29;20050;-62
2022/08/15 11:22:36;;;;;;;1.33;1.33;;;28.00;99.90;;;28.27;59.44;100284.88;4826883;29;20050;-62